sensor_id;sensor_type;location;lat;lon;timestamp;temperature;humidity
27226;DHT22;14732;51.074;3.788;2023-02-10T00:01:17;4.90;99.90
27226;DHT22;14732;51.074;3.788;2023-02-10T00:03:44;4.80;99.90
27226;DHT22;14732;51.074;3.788;2023-02-10T00:06:10;4.80;99.90
27226;DHT22;14732;51.074;3.788;2023-02-10T00:08:37;4.80;99.90
27226;DHT22;14732;51.074;3.788;2023-02-10T00:11:05;4.70;99.90
27226;DHT22;14732;51.074;3.788;2023-02-10T00:13:32;4.80;99.90
27226;DHT22;14732;51.074;3.788;2023-02-10T00:15:58;4.80;99.90
27226;DHT22;14732;51.074;3.788;2023-02-10T00:18:25;4.80;99.90
27226;DHT22;14732;51.074;3.788;2023-02-10T00:20:52;4.80;99.90
27226;DHT22;14732;51.074;3.788;2023-02-10T00:23:19;4.80;99.90
27226;DHT22;14732;51.074;3.788;2023-02-10T00:25:46;4.70;99.90
27226;DHT22;14732;51.074;3.788;2023-02-10T00:28:12;4.70;99.90
27226;DHT22;14732;51.074;3.788;2023-02-10T00:30:38;4.70;99.90
27226;DHT22;14732;51.074;3.788;2023-02-10T00:33:04;4.60;99.90
27226;DHT22;14732;51.074;3.788;2023-02-10T00:35:29;4.60;99.90
27226;DHT22;14732;51.074;3.788;2023-02-10T00:37:56;4.60;99.90
27226;DHT22;14732;51.074;3.788;2023-02-10T00:40:21;4.60;99.90
27226;DHT22;14732;51.074;3.788;2023-02-10T00:42:47;4.50;99.90
27226;DHT22;14732;51.074;3.788;2023-02-10T00:45:15;4.50;99.90
27226;DHT22;14732;51.074;3.788;2023-02-10T00:47:41;4.50;99.90
27226;DHT22;14732;51.074;3.788;2023-02-10T00:50:08;4.40;99.90
27226;DHT22;14732;51.074;3.788;2023-02-10T00:52:35;4.30;99.90
27226;DHT22;14732;51.074;3.788;2023-02-10T00:55:03;4.30;99.90
27226;DHT22;14732;51.074;3.788;2023-02-10T00:57:30;4.30;99.90
27226;DHT22;14732;51.074;3.788;2023-02-10T00:59:56;4.30;99.90
27226;DHT22;14732;51.074;3.788;2023-02-10T01:02:22;4.30;99.90
27226;DHT22;14732;51.074;3.788;2023-02-10T01:04:47;4.30;99.90
27226;DHT22;14732;51.074;3.788;2023-02-10T01:07:13;4.20;99.90
27226;DHT22;14732;51.074;3.788;2023-02-10T01:09:38;4.30;99.90
27226;DHT22;14732;51.074;3.788;2023-02-10T01:12:05;4.20;99.90
27226;DHT22;14732;51.074;3.788;2023-02-10T01:14:32;4.20;99.90
27226;DHT22;14732;51.074;3.788;2023-02-10T01:16:58;4.20;99.90
27226;DHT22;14732;51.074;3.788;2023-02-10T01:19:24;4.20;99.90
27226;DHT22;14732;51.074;3.788;2023-02-10T01:21:49;4.20;99.90
27226;DHT22;14732;51.074;3.788;2023-02-10T01:24:15;4.20;99.90
27226;DHT22;14732;51.074;3.788;2023-02-10T01:26:41;4.20;99.90
27226;DHT22;14732;51.074;3.788;2023-02-10T01:29:07;4.20;99.90
27226;DHT22;14732;51.074;3.788;2023-02-10T01:31:33;4.20;99.90
27226;DHT22;14732;51.074;3.788;2023-02-10T01:33:58;4.30;99.90
27226;DHT22;14732;51.074;3.788;2023-02-10T01:36:25;4.30;99.90
27226;DHT22;14732;51.074;3.788;2023-02-10T01:38:51;4.30;99.90
27226;DHT22;14732;51.074;3.788;2023-02-10T01:41:20;4.40;99.90
27226;DHT22;14732;51.074;3.788;2023-02-10T01:46:43;4.60;99.90
27226;DHT22;14732;51.074;3.788;2023-02-10T01:49:11;4.60;99.90
27226;DHT22;14732;51.074;3.788;2023-02-10T01:52:16;4.70;99.90
27226;DHT22;14732;51.074;3.788;2023-02-10T01:54:47;4.80;99.90
27226;DHT22;14732;51.074;3.788;2023-02-10T01:57:15;4.80;99.90
27226;DHT22;14732;51.074;3.788;2023-02-10T01:59:42;4.70;99.90
27226;DHT22;14732;51.074;3.788;2023-02-10T02:02:08;4.80;99.90
27226;DHT22;14732;51.074;3.788;2023-02-10T02:07:10;5.00;99.90
27226;DHT22;14732;51.074;3.788;2023-02-10T02:09:36;5.00;99.90
27226;DHT22;14732;51.074;3.788;2023-02-10T02:12:14;5.10;99.90
27226;DHT22;14732;51.074;3.788;2023-02-10T02:14:57;5.10;99.90
27226;DHT22;14732;51.074;3.788;2023-02-10T02:17:29;5.10;99.90
27226;DHT22;14732;51.074;3.788;2023-02-10T02:29:34;4.90;99.90
27226;DHT22;14732;51.074;3.788;2023-02-10T02:32:26;4.80;99.90
27226;DHT22;14732;51.074;3.788;2023-02-10T02:34:59;4.70;99.90
27226;DHT22;14732;51.074;3.788;2023-02-10T02:37:33;4.60;99.90
27226;DHT22;14732;51.074;3.788;2023-02-10T02:40:00;4.50;99.90
27226;DHT22;14732;51.074;3.788;2023-02-10T02:42:31;4.40;99.90
27226;DHT22;14732;51.074;3.788;2023-02-10T02:45:06;4.40;99.90
27226;DHT22;14732;51.074;3.788;2023-02-10T03:01:30;3.90;99.90
27226;DHT22;14732;51.074;3.788;2023-02-10T03:03:58;3.90;99.90
27226;DHT22;14732;51.074;3.788;2023-02-10T03:06:24;3.80;99.90
27226;DHT22;14732;51.074;3.788;2023-02-10T03:08:50;3.80;99.90
27226;DHT22;14732;51.074;3.788;2023-02-10T03:11:16;3.90;99.90
27226;DHT22;14732;51.074;3.788;2023-02-10T03:13:42;3.90;99.90
27226;DHT22;14732;51.074;3.788;2023-02-10T03:16:07;3.90;99.90
27226;DHT22;14732;51.074;3.788;2023-02-10T03:18:33;3.80;99.90
27226;DHT22;14732;51.074;3.788;2023-02-10T03:20:59;3.80;99.90
27226;DHT22;14732;51.074;3.788;2023-02-10T03:23:24;3.80;99.90
27226;DHT22;14732;51.074;3.788;2023-02-10T03:25:50;3.70;99.90
27226;DHT22;14732;51.074;3.788;2023-02-10T03:28:16;3.70;99.90
27226;DHT22;14732;51.074;3.788;2023-02-10T03:30:42;3.70;99.90
27226;DHT22;14732;51.074;3.788;2023-02-10T03:33:13;3.70;99.90
27226;DHT22;14732;51.074;3.788;2023-02-10T03:35:39;3.70;99.90
27226;DHT22;14732;51.074;3.788;2023-02-10T03:38:06;3.70;99.90
27226;DHT22;14732;51.074;3.788;2023-02-10T03:40:32;3.70;99.90
27226;DHT22;14732;51.074;3.788;2023-02-10T03:42:57;3.70;99.90
27226;DHT22;14732;51.074;3.788;2023-02-10T03:45:23;3.60;99.90
27226;DHT22;14732;51.074;3.788;2023-02-10T03:47:49;3.60;99.90
27226;DHT22;14732;51.074;3.788;2023-02-10T03:50:14;3.50;99.90
27226;DHT22;14732;51.074;3.788;2023-02-10T03:52:40;3.50;99.90
27226;DHT22;14732;51.074;3.788;2023-02-10T03:55:06;3.50;99.90
27226;DHT22;14732;51.074;3.788;2023-02-10T03:57:32;3.40;99.90
27226;DHT22;14732;51.074;3.788;2023-02-10T03:59:58;3.40;99.90
27226;DHT22;14732;51.074;3.788;2023-02-10T04:02:23;3.50;99.90
27226;DHT22;14732;51.074;3.788;2023-02-10T04:04:49;3.50;99.90
27226;DHT22;14732;51.074;3.788;2023-02-10T04:07:15;3.50;99.90
27226;DHT22;14732;51.074;3.788;2023-02-10T04:09:40;3.40;99.90
27226;DHT22;14732;51.074;3.788;2023-02-10T04:12:06;3.40;99.90
27226;DHT22;14732;51.074;3.788;2023-02-10T04:14:32;3.50;99.90
27226;DHT22;14732;51.074;3.788;2023-02-10T04:16:58;3.50;99.90
27226;DHT22;14732;51.074;3.788;2023-02-10T04:19:24;3.50;99.90
27226;DHT22;14732;51.074;3.788;2023-02-10T04:21:50;3.60;99.90
27226;DHT22;14732;51.074;3.788;2023-02-10T04:24:16;3.60;99.90
27226;DHT22;14732;51.074;3.788;2023-02-10T04:26:41;3.60;99.90
27226;DHT22;14732;51.074;3.788;2023-02-10T04:29:07;3.70;99.90
27226;DHT22;14732;51.074;3.788;2023-02-10T04:31:33;3.70;99.90
27226;DHT22;14732;51.074;3.788;2023-02-10T04:33:58;3.70;99.90
27226;DHT22;14732;51.074;3.788;2023-02-10T04:36:24;3.80;99.90
27226;DHT22;14732;51.074;3.788;2023-02-10T04:38:50;3.80;99.90
27226;DHT22;14732;51.074;3.788;2023-02-10T04:41:15;3.80;99.90
27226;DHT22;14732;51.074;3.788;2023-02-10T04:43:41;3.80;99.90
27226;DHT22;14732;51.074;3.788;2023-02-10T04:46:07;3.80;99.90
27226;DHT22;14732;51.074;3.788;2023-02-10T04:48:33;3.80;99.90
27226;DHT22;14732;51.074;3.788;2023-02-10T04:51:04;3.80;99.90
27226;DHT22;14732;51.074;3.788;2023-02-10T04:53:30;3.70;99.90
27226;DHT22;14732;51.074;3.788;2023-02-10T04:55:56;3.70;99.90
27226;DHT22;14732;51.074;3.788;2023-02-10T04:58:21;3.60;99.90
27226;DHT22;14732;51.074;3.788;2023-02-10T05:00:47;3.60;99.90
27226;DHT22;14732;51.074;3.788;2023-02-10T05:03:13;3.60;99.90
27226;DHT22;14732;51.074;3.788;2023-02-10T05:05:38;3.60;99.90
27226;DHT22;14732;51.074;3.788;2023-02-10T05:08:04;3.50;99.90
27226;DHT22;14732;51.074;3.788;2023-02-10T05:10:30;3.50;99.90
27226;DHT22;14732;51.074;3.788;2023-02-10T05:12:55;3.50;99.90
27226;DHT22;14732;51.074;3.788;2023-02-10T05:15:21;3.60;99.90
27226;DHT22;14732;51.074;3.788;2023-02-10T05:17:47;3.60;99.90
27226;DHT22;14732;51.074;3.788;2023-02-10T05:20:12;3.80;99.90
27226;DHT22;14732;51.074;3.788;2023-02-10T05:22:39;3.90;99.90
27226;DHT22;14732;51.074;3.788;2023-02-10T05:25:06;3.90;99.90
27226;DHT22;14732;51.074;3.788;2023-02-10T05:27:32;3.90;99.90
27226;DHT22;14732;51.074;3.788;2023-02-10T05:29:58;4.00;99.90
27226;DHT22;14732;51.074;3.788;2023-02-10T05:32:24;4.00;99.90
27226;DHT22;14732;51.074;3.788;2023-02-10T05:34:50;4.10;99.90
27226;DHT22;14732;51.074;3.788;2023-02-10T05:37:16;4.20;99.90
27226;DHT22;14732;51.074;3.788;2023-02-10T05:39:42;4.30;99.90
27226;DHT22;14732;51.074;3.788;2023-02-10T05:42:08;4.40;99.90
27226;DHT22;14732;51.074;3.788;2023-02-10T05:44:34;4.40;99.90
27226;DHT22;14732;51.074;3.788;2023-02-10T05:47:00;4.40;99.90
27226;DHT22;14732;51.074;3.788;2023-02-10T05:49:25;4.50;99.90
27226;DHT22;14732;51.074;3.788;2023-02-10T05:51:51;4.50;99.90
27226;DHT22;14732;51.074;3.788;2023-02-10T05:54:17;4.50;99.90
27226;DHT22;14732;51.074;3.788;2023-02-10T05:56:43;4.50;99.90
27226;DHT22;14732;51.074;3.788;2023-02-10T05:59:11;4.30;99.90
27226;DHT22;14732;51.074;3.788;2023-02-10T06:01:40;4.30;99.90
27226;DHT22;14732;51.074;3.788;2023-02-10T06:04:06;4.20;99.90
27226;DHT22;14732;51.074;3.788;2023-02-10T06:06:31;4.10;99.90
27226;DHT22;14732;51.074;3.788;2023-02-10T06:08:57;4.10;99.90
27226;DHT22;14732;51.074;3.788;2023-02-10T06:11:22;4.00;99.90
27226;DHT22;14732;51.074;3.788;2023-02-10T06:13:48;3.90;99.90
27226;DHT22;14732;51.074;3.788;2023-02-10T06:16:14;3.90;99.90
27226;DHT22;14732;51.074;3.788;2023-02-10T06:18:40;3.90;99.90
27226;DHT22;14732;51.074;3.788;2023-02-10T06:21:05;3.80;99.90
27226;DHT22;14732;51.074;3.788;2023-02-10T06:23:31;3.80;99.90
27226;DHT22;14732;51.074;3.788;2023-02-10T06:25:57;3.80;99.90
27226;DHT22;14732;51.074;3.788;2023-02-10T06:28:25;3.70;99.90
27226;DHT22;14732;51.074;3.788;2023-02-10T06:30:52;3.60;99.90
27226;DHT22;14732;51.074;3.788;2023-02-10T06:33:18;3.60;99.90
27226;DHT22;14732;51.074;3.788;2023-02-10T06:35:44;3.60;99.90
27226;DHT22;14732;51.074;3.788;2023-02-10T06:38:09;3.60;99.90
27226;DHT22;14732;51.074;3.788;2023-02-10T06:40:35;3.60;99.90
27226;DHT22;14732;51.074;3.788;2023-02-10T06:43:01;3.60;99.90
27226;DHT22;14732;51.074;3.788;2023-02-10T06:45:27;3.50;99.90
27226;DHT22;14732;51.074;3.788;2023-02-10T06:47:53;3.50;99.90
27226;DHT22;14732;51.074;3.788;2023-02-10T06:50:19;3.40;99.90
27226;DHT22;14732;51.074;3.788;2023-02-10T06:52:46;3.40;99.90
27226;DHT22;14732;51.074;3.788;2023-02-10T06:55:11;3.40;99.90
27226;DHT22;14732;51.074;3.788;2023-02-10T06:57:37;3.40;99.90
27226;DHT22;14732;51.074;3.788;2023-02-10T07:00:04;3.40;99.90
27226;DHT22;14732;51.074;3.788;2023-02-10T07:02:30;3.30;99.90
27226;DHT22;14732;51.074;3.788;2023-02-10T07:04:56;3.40;99.90
27226;DHT22;14732;51.074;3.788;2023-02-10T07:07:22;3.40;99.90
27226;DHT22;14732;51.074;3.788;2023-02-10T07:09:48;3.30;99.90
27226;DHT22;14732;51.074;3.788;2023-02-10T07:12:13;3.30;99.90
27226;DHT22;14732;51.074;3.788;2023-02-10T07:14:39;3.30;99.90
27226;DHT22;14732;51.074;3.788;2023-02-10T07:17:04;3.40;99.90
27226;DHT22;14732;51.074;3.788;2023-02-10T07:19:30;3.50;99.90
27226;DHT22;14732;51.074;3.788;2023-02-10T07:21:57;3.50;99.90
27226;DHT22;14732;51.074;3.788;2023-02-10T07:24:22;3.60;99.90
27226;DHT22;14732;51.074;3.788;2023-02-10T07:26:48;3.60;99.90
27226;DHT22;14732;51.074;3.788;2023-02-10T07:29:14;3.50;99.90
27226;DHT22;14732;51.074;3.788;2023-02-10T07:31:39;3.60;99.90
27226;DHT22;14732;51.074;3.788;2023-02-10T07:34:05;3.70;99.90
27226;DHT22;14732;51.074;3.788;2023-02-10T07:36:31;3.80;99.90
27226;DHT22;14732;51.074;3.788;2023-02-10T07:38:58;3.90;99.90
27226;DHT22;14732;51.074;3.788;2023-02-10T07:41:23;3.90;99.90
27226;DHT22;14732;51.074;3.788;2023-02-10T07:43:49;4.00;99.90
27226;DHT22;14732;51.074;3.788;2023-02-10T07:46:14;4.20;99.90
27226;DHT22;14732;51.074;3.788;2023-02-10T07:48:40;4.50;99.90
27226;DHT22;14732;51.074;3.788;2023-02-10T07:51:06;4.80;99.90
27226;DHT22;14732;51.074;3.788;2023-02-10T07:53:32;4.80;99.90
27226;DHT22;14732;51.074;3.788;2023-02-10T07:56:00;4.70;99.90
27226;DHT22;14732;51.074;3.788;2023-02-10T07:58:26;4.60;99.90
27226;DHT22;14732;51.074;3.788;2023-02-10T08:00:52;4.70;99.90
27226;DHT22;14732;51.074;3.788;2023-02-10T08:03:17;4.70;99.90
27226;DHT22;14732;51.074;3.788;2023-02-10T08:05:43;4.70;99.90
27226;DHT22;14732;51.074;3.788;2023-02-10T08:08:10;4.70;99.90
27226;DHT22;14732;51.074;3.788;2023-02-10T08:10:37;4.80;99.90
27226;DHT22;14732;51.074;3.788;2023-02-10T08:13:03;4.90;99.90
27226;DHT22;14732;51.074;3.788;2023-02-10T08:15:29;4.90;99.90
27226;DHT22;14732;51.074;3.788;2023-02-10T08:17:55;4.90;99.90
27226;DHT22;14732;51.074;3.788;2023-02-10T08:20:20;5.10;99.90
27226;DHT22;14732;51.074;3.788;2023-02-10T08:22:46;5.40;99.90
27226;DHT22;14732;51.074;3.788;2023-02-10T08:25:12;5.50;99.90
27226;DHT22;14732;51.074;3.788;2023-02-10T08:27:37;5.60;99.90
27226;DHT22;14732;51.074;3.788;2023-02-10T08:30:04;6.00;99.90
27226;DHT22;14732;51.074;3.788;2023-02-10T08:32:31;7.00;99.90
27226;DHT22;14732;51.074;3.788;2023-02-10T08:34:57;7.50;99.90
27226;DHT22;14732;51.074;3.788;2023-02-10T08:37:22;7.60;99.90
27226;DHT22;14732;51.074;3.788;2023-02-10T08:39:48;7.50;99.90
27226;DHT22;14732;51.074;3.788;2023-02-10T08:42:14;7.90;99.90
27226;DHT22;14732;51.074;3.788;2023-02-10T08:44:39;8.80;99.90
27226;DHT22;14732;51.074;3.788;2023-02-10T08:47:05;10.20;99.90
27226;DHT22;14732;51.074;3.788;2023-02-10T08:49:31;11.60;99.90
27226;DHT22;14732;51.074;3.788;2023-02-10T08:51:57;12.90;99.90
27226;DHT22;14732;51.074;3.788;2023-02-10T08:54:23;13.70;99.90
27226;DHT22;14732;51.074;3.788;2023-02-10T08:56:53;13.90;99.90
27226;DHT22;14732;51.074;3.788;2023-02-10T08:59:19;14.10;99.90
27226;DHT22;14732;51.074;3.788;2023-02-10T09:01:44;13.90;99.90
27226;DHT22;14732;51.074;3.788;2023-02-10T09:04:10;13.20;99.90
27226;DHT22;14732;51.074;3.788;2023-02-10T09:06:38;12.20;99.90
27226;DHT22;14732;51.074;3.788;2023-02-10T09:09:12;11.40;99.90
27226;DHT22;14732;51.074;3.788;2023-02-10T09:11:39;10.90;99.90
27226;DHT22;14732;51.074;3.788;2023-02-10T09:14:05;10.40;99.90
27226;DHT22;14732;51.074;3.788;2023-02-10T09:16:30;9.60;99.90
27226;DHT22;14732;51.074;3.788;2023-02-10T09:18:56;9.10;99.90
27226;DHT22;14732;51.074;3.788;2023-02-10T09:21:22;9.00;99.90
27226;DHT22;14732;51.074;3.788;2023-02-10T09:23:47;8.80;99.90
27226;DHT22;14732;51.074;3.788;2023-02-10T09:26:13;8.50;99.90
27226;DHT22;14732;51.074;3.788;2023-02-10T09:28:39;8.50;99.90
27226;DHT22;14732;51.074;3.788;2023-02-10T09:31:06;8.30;99.90
27226;DHT22;14732;51.074;3.788;2023-02-10T09:33:32;8.00;99.90
27226;DHT22;14732;51.074;3.788;2023-02-10T09:35:58;7.90;99.90
27226;DHT22;14732;51.074;3.788;2023-02-10T09:38:24;7.80;99.90
27226;DHT22;14732;51.074;3.788;2023-02-10T09:54:43;7.50;99.90
27226;DHT22;14732;51.074;3.788;2023-02-10T09:57:30;7.60;99.90
27226;DHT22;14732;51.074;3.788;2023-02-10T09:59:58;7.50;99.90
27226;DHT22;14732;51.074;3.788;2023-02-10T10:02:30;7.70;99.90
27226;DHT22;14732;51.074;3.788;2023-02-10T10:04:59;7.60;99.90
27226;DHT22;14732;51.074;3.788;2023-02-10T10:07:34;7.70;99.90
27226;DHT22;14732;51.074;3.788;2023-02-10T10:10:14;7.60;99.90
27226;DHT22;14732;51.074;3.788;2023-02-10T10:12:41;7.60;99.90
27226;DHT22;14732;51.074;3.788;2023-02-10T10:15:16;7.50;99.90
27226;DHT22;14732;51.074;3.788;2023-02-10T10:26:12;7.70;99.90
27226;DHT22;14732;51.074;3.788;2023-02-10T10:33:50;8.00;99.90
27226;DHT22;14732;51.074;3.788;2023-02-10T10:36:22;8.10;99.90
27226;DHT22;14732;51.074;3.788;2023-02-10T10:38:54;8.20;99.90
27226;DHT22;14732;51.074;3.788;2023-02-10T10:41:27;8.30;99.90
27226;DHT22;14732;51.074;3.788;2023-02-10T10:43:55;8.40;99.90
27226;DHT22;14732;51.074;3.788;2023-02-10T10:49:13;8.60;99.90
27226;DHT22;14732;51.074;3.788;2023-02-10T10:51:39;8.60;99.90
27226;DHT22;14732;51.074;3.788;2023-02-10T10:54:06;8.60;99.90
27226;DHT22;14732;51.074;3.788;2023-02-10T10:57:00;8.60;99.90
27226;DHT22;14732;51.074;3.788;2023-02-10T10:59:58;8.90;99.90
27226;DHT22;14732;51.074;3.788;2023-02-10T11:02:23;9.00;99.90
27226;DHT22;14732;51.074;3.788;2023-02-10T11:05:06;9.10;99.90
27226;DHT22;14732;51.074;3.788;2023-02-10T11:07:36;9.00;99.90
27226;DHT22;14732;51.074;3.788;2023-02-10T11:10:03;9.00;99.90
27226;DHT22;14732;51.074;3.788;2023-02-10T11:12:38;9.30;99.90
27226;DHT22;14732;51.074;3.788;2023-02-10T11:17:57;9.40;99.90
27226;DHT22;14732;51.074;3.788;2023-02-10T11:20:26;9.70;99.90
27226;DHT22;14732;51.074;3.788;2023-02-10T11:23:10;9.80;99.90
27226;DHT22;14732;51.074;3.788;2023-02-10T11:25:36;9.80;99.90
27226;DHT22;14732;51.074;3.788;2023-02-10T11:28:05;9.80;99.90
27226;DHT22;14732;51.074;3.788;2023-02-10T11:30:33;9.70;99.90
27226;DHT22;14732;51.074;3.788;2023-02-10T11:33:01;9.80;99.90
27226;DHT22;14732;51.074;3.788;2023-02-10T11:35:28;9.70;99.90
27226;DHT22;14732;51.074;3.788;2023-02-10T11:38:01;9.70;99.90
27226;DHT22;14732;51.074;3.788;2023-02-10T11:40:30;9.70;99.90
27226;DHT22;14732;51.074;3.788;2023-02-10T11:42:58;9.70;99.90
27226;DHT22;14732;51.074;3.788;2023-02-10T11:45:27;9.50;99.90
27226;DHT22;14732;51.074;3.788;2023-02-10T11:48:17;9.70;99.90
27226;DHT22;14732;51.074;3.788;2023-02-10T11:50:43;9.60;99.90
27226;DHT22;14732;51.074;3.788;2023-02-10T11:53:22;9.50;99.90
27226;DHT22;14732;51.074;3.788;2023-02-10T12:04:02;9.70;99.90
27226;DHT22;14732;51.074;3.788;2023-02-10T12:06:43;9.80;99.90
27226;DHT22;14732;51.074;3.788;2023-02-10T12:09:15;9.80;99.90
27226;DHT22;14732;51.074;3.788;2023-02-10T12:11:55;9.80;99.90
27226;DHT22;14732;51.074;3.788;2023-02-10T12:17:39;10.00;99.90
27226;DHT22;14732;51.074;3.788;2023-02-10T12:23:35;10.00;99.90
27226;DHT22;14732;51.074;3.788;2023-02-10T12:54:40;10.80;99.90
27226;DHT22;14732;51.074;3.788;2023-02-10T12:57:13;10.70;99.90
27226;DHT22;14732;51.074;3.788;2023-02-10T13:03:02;10.70;99.90
27226;DHT22;14732;51.074;3.788;2023-02-10T13:08:25;10.70;99.90
27226;DHT22;14732;51.074;3.788;2023-02-10T13:10:55;10.60;99.90
27226;DHT22;14732;51.074;3.788;2023-02-10T13:13:30;10.60;99.90
27226;DHT22;14732;51.074;3.788;2023-02-10T13:16:15;10.30;99.90
27226;DHT22;14732;51.074;3.788;2023-02-10T13:18:55;10.50;99.90
27226;DHT22;14732;51.074;3.788;2023-02-10T13:21:28;10.60;99.90
27226;DHT22;14732;51.074;3.788;2023-02-10T13:24:10;10.50;99.90
27226;DHT22;14732;51.074;3.788;2023-02-10T13:29:42;10.80;99.90
27226;DHT22;14732;51.074;3.788;2023-02-10T13:34:59;10.60;99.90
27226;DHT22;14732;51.074;3.788;2023-02-10T13:37:39;10.70;99.90
27226;DHT22;14732;51.074;3.788;2023-02-10T13:40:28;10.50;99.90
27226;DHT22;14732;51.074;3.788;2023-02-10T13:42:59;10.40;99.90
27226;DHT22;14732;51.074;3.788;2023-02-10T13:45:36;10.50;99.90
27226;DHT22;14732;51.074;3.788;2023-02-10T13:48:04;10.50;99.90
27226;DHT22;14732;51.074;3.788;2023-02-10T13:50:50;10.40;99.90
27226;DHT22;14732;51.074;3.788;2023-02-10T13:53:39;10.60;99.90
27226;DHT22;14732;51.074;3.788;2023-02-10T13:58:57;10.90;99.90
27226;DHT22;14732;51.074;3.788;2023-02-10T14:06:44;10.30;99.90
27226;DHT22;14732;51.074;3.788;2023-02-10T14:11:54;10.70;99.90
27226;DHT22;14732;51.074;3.788;2023-02-10T14:14:39;10.80;99.90
27226;DHT22;14732;51.074;3.788;2023-02-10T14:19:39;10.90;99.90
27226;DHT22;14732;51.074;3.788;2023-02-10T14:22:26;10.90;99.90
27226;DHT22;14732;51.074;3.788;2023-02-10T14:24:53;11.00;99.90
27226;DHT22;14732;51.074;3.788;2023-02-10T14:27:21;10.80;99.90
27226;DHT22;14732;51.074;3.788;2023-02-10T14:29:59;10.70;99.90
27226;DHT22;14732;51.074;3.788;2023-02-10T14:32:25;10.80;99.90
27226;DHT22;14732;51.074;3.788;2023-02-10T14:34:58;10.80;99.90
27226;DHT22;14732;51.074;3.788;2023-02-10T14:37:24;10.90;99.90
27226;DHT22;14732;51.074;3.788;2023-02-10T14:39:59;10.90;99.90
27226;DHT22;14732;51.074;3.788;2023-02-10T14:42:27;10.90;99.90
27226;DHT22;14732;51.074;3.788;2023-02-10T14:44:56;10.90;99.90
27226;DHT22;14732;51.074;3.788;2023-02-10T14:47:28;10.80;99.90
27226;DHT22;14732;51.074;3.788;2023-02-10T14:49:55;10.80;99.90
27226;DHT22;14732;51.074;3.788;2023-02-10T14:52:30;11.00;99.90
27226;DHT22;14732;51.074;3.788;2023-02-10T14:54:57;11.00;99.90
27226;DHT22;14732;51.074;3.788;2023-02-10T14:57:24;11.10;99.90
27226;DHT22;14732;51.074;3.788;2023-02-10T14:59:55;11.00;99.90
27226;DHT22;14732;51.074;3.788;2023-02-10T15:02:24;11.00;99.90
27226;DHT22;14732;51.074;3.788;2023-02-10T15:04:53;11.10;99.90
27226;DHT22;14732;51.074;3.788;2023-02-10T15:07:32;10.90;99.90
27226;DHT22;14732;51.074;3.788;2023-02-10T15:10:17;10.80;99.90
27226;DHT22;14732;51.074;3.788;2023-02-10T15:12:43;10.70;99.90
27226;DHT22;14732;51.074;3.788;2023-02-10T15:17:46;11.10;99.90
27226;DHT22;14732;51.074;3.788;2023-02-10T15:22:45;10.80;99.90
27226;DHT22;14732;51.074;3.788;2023-02-10T15:28:17;10.70;99.90
27226;DHT22;14732;51.074;3.788;2023-02-10T15:31:03;10.60;99.90
27226;DHT22;14732;51.074;3.788;2023-02-10T15:33:35;10.60;99.90
27226;DHT22;14732;51.074;3.788;2023-02-10T15:36:21;10.50;99.90
27226;DHT22;14732;51.074;3.788;2023-02-10T15:38:58;10.40;99.90
27226;DHT22;14732;51.074;3.788;2023-02-10T15:44:00;10.80;99.90
27226;DHT22;14732;51.074;3.788;2023-02-10T15:46:30;10.90;99.90
27226;DHT22;14732;51.074;3.788;2023-02-10T15:49:15;11.20;99.90
27226;DHT22;14732;51.074;3.788;2023-02-10T15:51:49;11.00;99.90
27226;DHT22;14732;51.074;3.788;2023-02-10T15:54:21;10.70;99.90
27226;DHT22;14732;51.074;3.788;2023-02-10T15:57:01;10.60;99.90
27226;DHT22;14732;51.074;3.788;2023-02-10T15:59:29;10.40;99.90
27226;DHT22;14732;51.074;3.788;2023-02-10T16:02:04;10.20;99.90
27226;DHT22;14732;51.074;3.788;2023-02-10T16:04:31;10.20;99.90
27226;DHT22;14732;51.074;3.788;2023-02-10T16:07:01;10.40;99.90
27226;DHT22;14732;51.074;3.788;2023-02-10T16:09:28;10.50;99.90
27226;DHT22;14732;51.074;3.788;2023-02-10T16:11:56;10.20;99.90
27226;DHT22;14732;51.074;3.788;2023-02-10T16:14:22;10.20;99.90
27226;DHT22;14732;51.074;3.788;2023-02-10T16:16:54;10.10;99.90
27226;DHT22;14732;51.074;3.788;2023-02-10T16:19:23;10.10;99.90
27226;DHT22;14732;51.074;3.788;2023-02-10T16:21:50;10.20;99.90
27226;DHT22;14732;51.074;3.788;2023-02-10T16:24:22;10.30;99.90
27226;DHT22;14732;51.074;3.788;2023-02-10T16:26:48;10.50;99.90
27226;DHT22;14732;51.074;3.788;2023-02-10T16:29:26;10.50;99.90
27226;DHT22;14732;51.074;3.788;2023-02-10T16:31:52;10.40;99.90
27226;DHT22;14732;51.074;3.788;2023-02-10T16:34:18;10.40;99.90
27226;DHT22;14732;51.074;3.788;2023-02-10T16:36:44;10.30;99.90
27226;DHT22;14732;51.074;3.788;2023-02-10T16:39:18;10.00;99.90
27226;DHT22;14732;51.074;3.788;2023-02-10T16:41:49;9.90;99.90
27226;DHT22;14732;51.074;3.788;2023-02-10T16:44:17;9.80;99.90
27226;DHT22;14732;51.074;3.788;2023-02-10T16:46:43;9.70;99.90
27226;DHT22;14732;51.074;3.788;2023-02-10T16:49:15;9.40;99.90
27226;DHT22;14732;51.074;3.788;2023-02-10T16:51:42;9.30;99.90
27226;DHT22;14732;51.074;3.788;2023-02-10T16:54:10;9.30;99.90
27226;DHT22;14732;51.074;3.788;2023-02-10T16:56:40;9.30;99.90
27226;DHT22;14732;51.074;3.788;2023-02-10T16:59:10;9.20;99.90
27226;DHT22;14732;51.074;3.788;2023-02-10T17:01:38;9.20;99.90
27226;DHT22;14732;51.074;3.788;2023-02-10T17:04:05;9.10;99.90
27226;DHT22;14732;51.074;3.788;2023-02-10T17:06:34;9.10;99.90
27226;DHT22;14732;51.074;3.788;2023-02-10T17:09:03;9.10;99.90
27226;DHT22;14732;51.074;3.788;2023-02-10T17:11:30;9.00;99.90
27226;DHT22;14732;51.074;3.788;2023-02-10T17:13:55;9.00;99.90
27226;DHT22;14732;51.074;3.788;2023-02-10T17:16:26;9.10;99.90
27226;DHT22;14732;51.074;3.788;2023-02-10T17:18:53;9.00;99.90
27226;DHT22;14732;51.074;3.788;2023-02-10T17:21:19;8.90;99.90
27226;DHT22;14732;51.074;3.788;2023-02-10T17:23:46;8.90;99.90
27226;DHT22;14732;51.074;3.788;2023-02-10T17:26:11;8.90;99.90
27226;DHT22;14732;51.074;3.788;2023-02-10T17:28:37;8.80;99.90
27226;DHT22;14732;51.074;3.788;2023-02-10T17:31:03;8.90;99.90
27226;DHT22;14732;51.074;3.788;2023-02-10T17:33:29;8.80;99.90
27226;DHT22;14732;51.074;3.788;2023-02-10T17:35:54;8.70;99.90
27226;DHT22;14732;51.074;3.788;2023-02-10T17:38:20;8.70;99.90
27226;DHT22;14732;51.074;3.788;2023-02-10T17:41:06;8.70;99.90
27226;DHT22;14732;51.074;3.788;2023-02-10T17:43:34;8.60;99.90
27226;DHT22;14732;51.074;3.788;2023-02-10T17:46:00;8.60;99.90
27226;DHT22;14732;51.074;3.788;2023-02-10T17:48:26;8.60;99.90
27226;DHT22;14732;51.074;3.788;2023-02-10T17:50:52;8.60;99.90
27226;DHT22;14732;51.074;3.788;2023-02-10T17:53:20;8.50;99.90
27226;DHT22;14732;51.074;3.788;2023-02-10T17:55:46;8.50;99.90
27226;DHT22;14732;51.074;3.788;2023-02-10T17:58:12;8.60;99.90
27226;DHT22;14732;51.074;3.788;2023-02-10T18:00:40;8.80;99.90
27226;DHT22;14732;51.074;3.788;2023-02-10T18:03:06;8.60;99.90
27226;DHT22;14732;51.074;3.788;2023-02-10T18:05:33;8.60;99.90
27226;DHT22;14732;51.074;3.788;2023-02-10T18:08:01;8.60;99.90
27226;DHT22;14732;51.074;3.788;2023-02-10T18:10:28;8.80;99.90
27226;DHT22;14732;51.074;3.788;2023-02-10T18:12:55;8.80;99.90